Weather observations for the past three days for
Lewiston, Lewiston-Nez Perce County Airport
Metric (Imperial)
Date Time (pdt) Wind (kph) Vis. (km) Weather Sky Cond. Temperature (ºC) Relative Humidity Wind Chill (°C) Heat Index (°C) Pressure Precipitation (cm)
Air Dwpt 6 hour altimeter (cm) sea level (mb) 1 hr 3 hr 6 hr
Max. Min.
04 16:56 NW 19 16.09 Fair CLR 27.2 6.1 27.8 19.4 26% 26 75.46 1005.4
04 15:56 NW 19 16.09 Fair CLR 27.8 3.9 22% 27 75.46 1005.6
04 14:56 NW 19 G 33 16.09 Fair CLR 27.8 4.4 22% 27 75.49 1005.7
04 13:56 NW 11 16.09 Fair CLR 26.1 8.3 32% 26 75.54 1006.3
04 12:56 Calm 16.09 Fair CLR 23.9 7.8 36% 25 75.59 1007.0
04 11:56 Calm 16.09 Fair CLR 22.2 8.3 41% 75.62 1007.5
04 10:56 N 7 16.09 Fair CLR 20 7.2 20 9.4 44% 75.64 1008.0
04 09:56 Vrbl 9 16.09 Fair CLR 17.2 7.2 52% 75.67 1008.4
04 08:56 N 7 16.09 Fair CLR 15 6.7 58% 75.69 1008.7
04 07:56 E 9 16.09 Fair CLR 13.9 5.6 58% 75.72 1008.8
04 06:56 NE 9 16.09 Fair CLR 12.8 5 59% 75.67 1008.3
04 05:56 SE 7 16.09 Fair CLR 9.4 5 74% 9 75.67 1008.1
04 04:56 E 6 16.09 Fair CLR 11.7 5 16.1 10.6 64% 75.67 1007.9
04 03:56 Calm 16.09 Fair CLR 10.6 5 69% 75.69 1008.3
04 02:56 Calm 16.09 Fair CLR 13.3 5 57% 75.64 1007.8
04 01:56 Calm 16.09 Fair CLR 14.4 4.4 51% 75.64 1007.7
04 00:56 Calm 16.09 Fair CLR 13.9 4.4 53% 75.64 1008.0
03 23:56 SW 9 16.09 Fair CLR 16.1 4.4 46% 75.64 1008.0
03 22:56 S 11 16.09 Fair CLR 16.1 5 27.8 16.1 48% 75.64 1008.1
03 21:56 SW 15 16.09 Fair CLR 17.2 5 45% 75.67 1008.1
03 20:56 S 13 16.09 Fair CLR 20.6 5.6 38% 75.64 1007.9
03 19:56 Calm 16.09 Fair CLR 25 1.7 22% 25 75.62 1007.4
03 18:56 W 7 16.09 Fair CLR 25.6 3.3 24% 25 75.64 1007.7
03 17:56 NW 17 16.09 Fair CLR 27.2 1.1 18% 26 75.67 1008.3
03 16:56 NW 20 G 33 16.09 Fair CLR 27.8 0 28.3 19.4 16% 27 75.72 1008.8
03 15:56 N 19 16.09 Fair CLR 27.8 3.3 21% 27 75.77 1009.3
03 14:56 N 19 G 30 16.09 Fair CLR 27.8 1.7 18% 27 75.82 1009.9
03 13:56 NW 6 16.09 Fair CLR 26.1 4.4 25% 26 75.87 1010.8
03 12:56 Calm 16.09 Fair CLR 23.9 7.8 36% 25 75.95 1011.8
03 11:56 Calm 16.09 Fair CLR 22.2 7.2 38% 76 1012.6
03 10:56 Vrbl 6 16.09 Fair CLR 19.4 7.2 19.4 10 45% 76.05 1013.5
03 09:56 N 13 14.48 Fair CLR 17.8 8.3 54% 76.1 1014.1
03 08:56 Calm 16.09 Fair CLR 16.1 7.2 56% 76.12 1014.3
03 07:56 E 11 16.09 Fair CLR 13.9 7.2 64% 76.12 1014.2
03 06:56 NE 9 16.09 Fair CLR 13.3 6.1 62% 76.1 1014.1
03 05:56 E 7 16.09 Fair CLR 10.6 6.1 74% 76.1 1013.9
03 04:56 Calm 16.09 Fair CLR 11.7 5 17.2 11.1 64% 76.07 1013.5
03 03:56 Calm 16.09 Fair CLR 12.2 5 62% 76.07 1013.5
03 02:56 Calm 16.09 Fair CLR 13.3 5 57% 76.07 1013.4
03 01:56 Calm 16.09 Fair CLR 14.4 5 53% 76.05 1013.2
03 00:56 S 11 16.09 Fair CLR 13.9 4.4 53% 76.02 1013.0
02 23:56 S 11 16.09 Fair CLR 16.1 4.4 46% 76 1012.7
02 22:56 S 13 16.09 Fair CLR 16.7 5 27.8 16.7 46% 76 1012.6
02 21:56 S 13 16.09 Fair CLR 18.3 6.1 45% 75.97 1012.4
02 20:56 S 11 16.09 Fair CLR 20 6.7 42% 75.95 1012.0
02 19:56 Calm 16.09 Fair CLR 24.4 5 29% 25 75.9 1011.1
02 18:56 SW 6 16.09 Fair CLR 25.6 2.8 23% 25 75.87 1011.1
02 17:56 Calm 16.09 Fair CLR 27.8 1.7 18% 27 75.9 1011.1
02 16:56 E 9 16.09 Fair CLR 27.8 1.7 28.3 20 18% 27 75.92 1011.4
02 15:56 N 6 16.09 Fair CLR 27.2 2.2 20% 26 75.95 1011.9
02 14:56 Calm 16.09 Fair CLR 26.1 7.2 30% 26 76.02 1012.8
02 13:56 W 7 16.09 Fair CLR 24.4 8.3 36% 25 76.07 1013.5
02 12:56 NE 9 16.09 Fair CLR 23.3 7.8 37% 76.12 1014.3
02 11:56 E 9 16.09 Fair CLR 21.1 5.6 37% 76.15 1014.9
02 10:56 Calm 16.09 Fair CLR 19.4 6.7 19.4 10.6 44% 76.2 1015.5
02 09:56 E 11 16.09 Fair CLR 18.3 6.7 47% 76.2 1015.7
02 08:56 E 11 16.09 Fair CLR 15.6 5.6 52% 76.25 1016.1
02 07:56 E 15 16.09 Fair CLR 13.9 4.4 53% 76.23 1015.7
02 06:56 SE 7 16.09 Fair CLR 11.1 5 66% 76.23 1015.6
02 05:56 SE 6 16.09 Fair CLR 11.1 4.4 64% 76.17 1015.2
02 04:56 E 7 16.09 Fair CLR 12.2 4.4 15.6 10.6 59% 76.17 1014.9
02 03:56 Calm 16.09 Fair CLR 12.2 4.4 59% 76.17 1015.1
02 02:56 SE 9 16.09 Fair CLR 11.7 5 64% 76.15 1014.8
02 01:56 Calm 16.09 Fair CLR 14.4 4.4 51% 76.15 1014.6
02 00:56 SE 7 16.09 Fair CLR 13.3 5.6 60% 76.15 1014.8
01 23:56 S 6 16.09 Fair CLR 14.4 5.6 56% 76.15 1014.6
01 22:56 S 9 16.09 Fair CLR 15 5.6 26.1 14.4 54% 76.12 1014.5
01 21:56 S 7 16.09 Fair CLR 16.1 5.6 50% 76.12 1014.5
01 20:56 Calm 16.09 Fair CLR 18.3 6.1 45% 76.1 1014.2
01 19:56 E 7 16.09 Fair CLR 21.7 2.8 29% 76.05 1013.4
01 18:56 E 11 16.09 Fair CLR 24.4 2.8 25% 25 76.05 1013.4
01 17:56 E 7 16.09 Fair CLR 25.6 2.2 22% 25 76.07 1013.7
Date Time (pdt) Wind (kph) Vis. (km) Weather Sky Cond. Air Dwpt Max. Min. Relative Humidity Wind Chill (°C) Heat Index (°C) altimeter (cm) sea level (mb) 1 hr 3 hr 6 hr
6 hour
Temperature (ºC) Pressure Precipitation (cm)